sensor_id;sensor_type;location;lat;lon;timestamp;temperature;humidity
22532;DHT22;11432;46.924;7.114;2023-02-08T00:00:37;-1.40;1.00
22532;DHT22;11432;46.924;7.114;2023-02-08T00:03:03;-1.40;1.00
22532;DHT22;11432;46.924;7.114;2023-02-08T00:05:29;-1.40;1.00
22532;DHT22;11432;46.924;7.114;2023-02-08T00:07:54;-1.40;1.00
22532;DHT22;11432;46.924;7.114;2023-02-08T00:10:20;-1.40;1.00
22532;DHT22;11432;46.924;7.114;2023-02-08T00:12:45;-1.40;1.00
22532;DHT22;11432;46.924;7.114;2023-02-08T00:15:11;-1.40;1.00
22532;DHT22;11432;46.924;7.114;2023-02-08T00:17:37;-1.40;1.00
22532;DHT22;11432;46.924;7.114;2023-02-08T00:20:03;-1.40;1.00
22532;DHT22;11432;46.924;7.114;2023-02-08T00:22:29;-1.40;1.00
22532;DHT22;11432;46.924;7.114;2023-02-08T00:24:55;-1.40;1.00
22532;DHT22;11432;46.924;7.114;2023-02-08T00:27:20;-1.50;1.00
22532;DHT22;11432;46.924;7.114;2023-02-08T00:29:46;-1.50;1.00
22532;DHT22;11432;46.924;7.114;2023-02-08T00:32:12;-1.50;1.00
22532;DHT22;11432;46.924;7.114;2023-02-08T00:34:37;-1.50;1.00
22532;DHT22;11432;46.924;7.114;2023-02-08T00:37:04;-1.50;1.00
22532;DHT22;11432;46.924;7.114;2023-02-08T00:39:30;-1.60;1.00
22532;DHT22;11432;46.924;7.114;2023-02-08T00:41:56;-1.60;1.00
22532;DHT22;11432;46.924;7.114;2023-02-08T00:44:21;-1.70;1.00
22532;DHT22;11432;46.924;7.114;2023-02-08T00:46:47;-1.70;1.00
22532;DHT22;11432;46.924;7.114;2023-02-08T00:49:13;-1.60;1.00
22532;DHT22;11432;46.924;7.114;2023-02-08T00:51:38;-1.70;1.00
22532;DHT22;11432;46.924;7.114;2023-02-08T00:54:04;-1.70;1.00
22532;DHT22;11432;46.924;7.114;2023-02-08T00:56:30;-1.70;1.00
22532;DHT22;11432;46.924;7.114;2023-02-08T00:58:55;-1.80;1.00
22532;DHT22;11432;46.924;7.114;2023-02-08T01:01:21;-1.80;1.00
22532;DHT22;11432;46.924;7.114;2023-02-08T01:03:46;-1.80;1.00
22532;DHT22;11432;46.924;7.114;2023-02-08T01:06:15;-1.80;1.00
22532;DHT22;11432;46.924;7.114;2023-02-08T01:08:41;-1.80;1.00
22532;DHT22;11432;46.924;7.114;2023-02-08T01:11:09;-1.80;1.00
22532;DHT22;11432;46.924;7.114;2023-02-08T01:13:36;-1.80;1.00
22532;DHT22;11432;46.924;7.114;2023-02-08T01:16:14;-1.80;1.00
22532;DHT22;11432;46.924;7.114;2023-02-08T01:18:42;-1.80;1.00
22532;DHT22;11432;46.924;7.114;2023-02-08T01:21:11;-1.80;1.00
22532;DHT22;11432;46.924;7.114;2023-02-08T01:23:37;-1.80;1.00
22532;DHT22;11432;46.924;7.114;2023-02-08T01:26:03;-1.80;1.00
22532;DHT22;11432;46.924;7.114;2023-02-08T01:28:29;-1.70;1.00
22532;DHT22;11432;46.924;7.114;2023-02-08T01:30:55;-1.70;1.00
22532;DHT22;11432;46.924;7.114;2023-02-08T01:33:20;-1.70;1.00
22532;DHT22;11432;46.924;7.114;2023-02-08T01:35:50;-1.70;1.00
22532;DHT22;11432;46.924;7.114;2023-02-08T01:38:16;-1.70;1.00
22532;DHT22;11432;46.924;7.114;2023-02-08T01:40:42;-1.70;1.00
22532;DHT22;11432;46.924;7.114;2023-02-08T01:43:24;-1.80;1.00
22532;DHT22;11432;46.924;7.114;2023-02-08T01:45:50;-1.80;1.00
22532;DHT22;11432;46.924;7.114;2023-02-08T01:48:34;-1.90;1.00
22532;DHT22;11432;46.924;7.114;2023-02-08T01:51:16;-1.90;1.00
22532;DHT22;11432;46.924;7.114;2023-02-08T01:53:43;-1.90;1.00
22532;DHT22;11432;46.924;7.114;2023-02-08T01:56:21;-1.90;1.00
22532;DHT22;11432;46.924;7.114;2023-02-08T01:58:50;-1.90;1.00
22532;DHT22;11432;46.924;7.114;2023-02-08T02:01:17;-1.80;1.00
22532;DHT22;11432;46.924;7.114;2023-02-08T02:03:42;-1.80;1.00
22532;DHT22;11432;46.924;7.114;2023-02-08T02:06:12;-1.80;1.00
22532;DHT22;11432;46.924;7.114;2023-02-08T02:08:44;-1.80;1.00
22532;DHT22;11432;46.924;7.114;2023-02-08T02:11:12;-1.80;1.00
22532;DHT22;11432;46.924;7.114;2023-02-08T02:13:38;-1.80;1.00
22532;DHT22;11432;46.924;7.114;2023-02-08T02:16:04;-1.80;1.00
22532;DHT22;11432;46.924;7.114;2023-02-08T02:18:31;-1.80;1.00
22532;DHT22;11432;46.924;7.114;2023-02-08T02:42:00;-1.90;1.00
22532;DHT22;11432;46.924;7.114;2023-02-08T02:48:05;-1.90;1.00
22532;DHT22;11432;46.924;7.114;2023-02-08T02:50:51;-1.80;1.00
22532;DHT22;11432;46.924;7.114;2023-02-08T02:56:05;-1.70;1.00
22532;DHT22;11432;46.924;7.114;2023-02-08T02:58:33;-1.60;1.00
22532;DHT22;11432;46.924;7.114;2023-02-08T03:01:00;-1.60;1.00
22532;DHT22;11432;46.924;7.114;2023-02-08T03:03:29;-1.60;1.00
22532;DHT22;11432;46.924;7.114;2023-02-08T03:06:05;-1.60;99.90
22532;DHT22;11432;46.924;7.114;2023-02-08T03:09:09;-1.50;99.90
22532;DHT22;11432;46.924;7.114;2023-02-08T03:11:39;-1.50;99.90
22532;DHT22;11432;46.924;7.114;2023-02-08T03:15:16;-1.50;99.90
22532;DHT22;11432;46.924;7.114;2023-02-08T03:20:44;-1.50;99.90
22532;DHT22;11432;46.924;7.114;2023-02-08T03:28:42;-1.50;99.90
22532;DHT22;11432;46.924;7.114;2023-02-08T03:33:44;-1.50;99.90
22532;DHT22;11432;46.924;7.114;2023-02-08T03:36:37;-1.50;99.90
22532;DHT22;11432;46.924;7.114;2023-02-08T03:39:09;-1.40;12.90
22532;DHT22;11432;46.924;7.114;2023-02-08T03:41:38;-1.40;4.00
22532;DHT22;11432;46.924;7.114;2023-02-08T03:44:12;-1.40;94.40
22532;DHT22;11432;46.924;7.114;2023-02-08T03:49:34;-1.40;81.80
22532;DHT22;11432;46.924;7.114;2023-02-08T03:52:03;-1.40;3.80
22532;DHT22;11432;46.924;7.114;2023-02-08T03:54:34;-1.30;1.00
22532;DHT22;11432;46.924;7.114;2023-02-08T03:57:15;-1.30;1.00
22532;DHT22;11432;46.924;7.114;2023-02-08T03:59:44;-1.30;1.00
22532;DHT22;11432;46.924;7.114;2023-02-08T04:02:17;-1.30;1.00
22532;DHT22;11432;46.924;7.114;2023-02-08T04:04:46;-1.30;1.00
22532;DHT22;11432;46.924;7.114;2023-02-08T04:07:12;-1.30;1.00
22532;DHT22;11432;46.924;7.114;2023-02-08T04:09:38;-1.30;1.00
22532;DHT22;11432;46.924;7.114;2023-02-08T04:12:04;-1.30;1.00
22532;DHT22;11432;46.924;7.114;2023-02-08T04:14:30;-1.20;1.00
22532;DHT22;11432;46.924;7.114;2023-02-08T04:16:55;-1.30;1.00
22532;DHT22;11432;46.924;7.114;2023-02-08T04:19:21;-1.20;1.00
22532;DHT22;11432;46.924;7.114;2023-02-08T04:21:47;-1.20;1.00
22532;DHT22;11432;46.924;7.114;2023-02-08T04:24:12;-1.20;1.00
22532;DHT22;11432;46.924;7.114;2023-02-08T04:26:38;-1.20;1.00
22532;DHT22;11432;46.924;7.114;2023-02-08T04:29:03;-1.20;1.00
22532;DHT22;11432;46.924;7.114;2023-02-08T04:31:29;-1.20;1.00
22532;DHT22;11432;46.924;7.114;2023-02-08T04:33:55;-1.20;1.00
22532;DHT22;11432;46.924;7.114;2023-02-08T04:36:20;-1.20;1.00
22532;DHT22;11432;46.924;7.114;2023-02-08T04:38:46;-1.20;1.00
22532;DHT22;11432;46.924;7.114;2023-02-08T04:41:11;-1.20;1.00
22532;DHT22;11432;46.924;7.114;2023-02-08T04:43:37;-1.10;1.00
22532;DHT22;11432;46.924;7.114;2023-02-08T04:46:03;-1.10;1.00
22532;DHT22;11432;46.924;7.114;2023-02-08T04:48:28;-1.10;1.00
22532;DHT22;11432;46.924;7.114;2023-02-08T04:50:55;-1.10;1.00
22532;DHT22;11432;46.924;7.114;2023-02-08T04:53:22;-1.10;1.00
22532;DHT22;11432;46.924;7.114;2023-02-08T04:55:47;-1.10;1.00
22532;DHT22;11432;46.924;7.114;2023-02-08T04:58:13;-1.10;1.00
22532;DHT22;11432;46.924;7.114;2023-02-08T05:00:38;-1.10;1.00
22532;DHT22;11432;46.924;7.114;2023-02-08T05:03:04;-1.10;1.00
22532;DHT22;11432;46.924;7.114;2023-02-08T05:05:30;-1.10;1.00
22532;DHT22;11432;46.924;7.114;2023-02-08T05:07:55;-1.10;1.00
22532;DHT22;11432;46.924;7.114;2023-02-08T05:10:21;-1.10;1.00
22532;DHT22;11432;46.924;7.114;2023-02-08T05:12:47;-1.10;1.00
22532;DHT22;11432;46.924;7.114;2023-02-08T05:15:13;-1.10;1.00
22532;DHT22;11432;46.924;7.114;2023-02-08T05:17:38;-1.10;1.00
22532;DHT22;11432;46.924;7.114;2023-02-08T05:20:05;-1.10;1.00
22532;DHT22;11432;46.924;7.114;2023-02-08T05:22:31;-1.10;1.00
22532;DHT22;11432;46.924;7.114;2023-02-08T05:24:57;-1.10;1.00
22532;DHT22;11432;46.924;7.114;2023-02-08T05:27:23;-1.10;1.00
22532;DHT22;11432;46.924;7.114;2023-02-08T05:29:49;-1.10;1.00
22532;DHT22;11432;46.924;7.114;2023-02-08T05:32:15;-1.20;1.00
22532;DHT22;11432;46.924;7.114;2023-02-08T05:34:41;-1.20;1.00
22532;DHT22;11432;46.924;7.114;2023-02-08T05:37:06;-1.20;1.00
22532;DHT22;11432;46.924;7.114;2023-02-08T05:39:32;-1.20;1.00
22532;DHT22;11432;46.924;7.114;2023-02-08T05:41:58;-1.20;1.00
22532;DHT22;11432;46.924;7.114;2023-02-08T05:44:23;-1.20;1.00
22532;DHT22;11432;46.924;7.114;2023-02-08T05:46:49;-1.30;1.00
22532;DHT22;11432;46.924;7.114;2023-02-08T05:49:14;-1.30;1.00
22532;DHT22;11432;46.924;7.114;2023-02-08T05:51:40;-1.30;1.00
22532;DHT22;11432;46.924;7.114;2023-02-08T05:54:06;-1.30;1.00
22532;DHT22;11432;46.924;7.114;2023-02-08T05:56:31;-1.30;1.00
22532;DHT22;11432;46.924;7.114;2023-02-08T05:59:00;-1.30;1.00
22532;DHT22;11432;46.924;7.114;2023-02-08T06:01:26;-1.40;1.00
22532;DHT22;11432;46.924;7.114;2023-02-08T06:03:51;-1.30;1.00
22532;DHT22;11432;46.924;7.114;2023-02-08T06:06:18;-1.30;1.00
22532;DHT22;11432;46.924;7.114;2023-02-08T06:08:44;-1.30;1.00
22532;DHT22;11432;46.924;7.114;2023-02-08T06:11:10;-1.40;1.00
22532;DHT22;11432;46.924;7.114;2023-02-08T06:13:35;-1.40;1.00
22532;DHT22;11432;46.924;7.114;2023-02-08T06:16:01;-1.40;1.00
22532;DHT22;11432;46.924;7.114;2023-02-08T06:18:27;-1.40;1.00
22532;DHT22;11432;46.924;7.114;2023-02-08T06:20:53;-1.40;1.00
22532;DHT22;11432;46.924;7.114;2023-02-08T06:23:20;-1.40;1.00
22532;DHT22;11432;46.924;7.114;2023-02-08T06:25:45;-1.40;1.00
22532;DHT22;11432;46.924;7.114;2023-02-08T06:28:11;-1.30;1.00
22532;DHT22;11432;46.924;7.114;2023-02-08T06:30:37;-1.40;1.00
22532;DHT22;11432;46.924;7.114;2023-02-08T06:33:03;-1.40;1.00
22532;DHT22;11432;46.924;7.114;2023-02-08T06:35:29;-1.40;1.00
22532;DHT22;11432;46.924;7.114;2023-02-08T06:37:55;-1.40;1.00
22532;DHT22;11432;46.924;7.114;2023-02-08T06:40:21;-1.40;1.00
22532;DHT22;11432;46.924;7.114;2023-02-08T06:42:47;-1.40;1.00
22532;DHT22;11432;46.924;7.114;2023-02-08T06:45:13;-1.40;1.00
22532;DHT22;11432;46.924;7.114;2023-02-08T06:47:38;-1.40;1.00
22532;DHT22;11432;46.924;7.114;2023-02-08T06:50:04;-1.40;1.00
22532;DHT22;11432;46.924;7.114;2023-02-08T06:52:30;-1.40;1.00
22532;DHT22;11432;46.924;7.114;2023-02-08T06:54:56;-1.50;1.00
22532;DHT22;11432;46.924;7.114;2023-02-08T06:57:22;-1.40;1.00
22532;DHT22;11432;46.924;7.114;2023-02-08T06:59:47;-1.40;1.00
22532;DHT22;11432;46.924;7.114;2023-02-08T07:04:38;-1.40;1.00
22532;DHT22;11432;46.924;7.114;2023-02-08T07:07:03;-1.40;1.00
22532;DHT22;11432;46.924;7.114;2023-02-08T07:09:29;-1.40;99.90
22532;DHT22;11432;46.924;7.114;2023-02-08T07:11:56;-1.30;99.90
22532;DHT22;11432;46.924;7.114;2023-02-08T07:14:22;-1.40;99.90
22532;DHT22;11432;46.924;7.114;2023-02-08T07:16:48;-1.40;1.00
22532;DHT22;11432;46.924;7.114;2023-02-08T07:19:13;-1.40;1.00
22532;DHT22;11432;46.924;7.114;2023-02-08T07:21:39;-1.30;1.00
22532;DHT22;11432;46.924;7.114;2023-02-08T07:24:04;-1.30;1.00
22532;DHT22;11432;46.924;7.114;2023-02-08T07:26:30;-1.30;1.00
22532;DHT22;11432;46.924;7.114;2023-02-08T07:28:57;-1.20;1.00
22532;DHT22;11432;46.924;7.114;2023-02-08T07:31:22;-1.20;1.00
22532;DHT22;11432;46.924;7.114;2023-02-08T07:33:48;-1.20;1.00
22532;DHT22;11432;46.924;7.114;2023-02-08T07:36:14;-1.20;1.00
22532;DHT22;11432;46.924;7.114;2023-02-08T07:38:39;-1.20;99.90
22532;DHT22;11432;46.924;7.114;2023-02-08T07:41:08;-1.20;1.00
22532;DHT22;11432;46.924;7.114;2023-02-08T07:43:35;-1.20;1.00
22532;DHT22;11432;46.924;7.114;2023-02-08T07:46:08;-1.20;1.00
22532;DHT22;11432;46.924;7.114;2023-02-08T07:48:35;-1.10;99.90
22532;DHT22;11432;46.924;7.114;2023-02-08T07:51:00;-1.00;99.90
22532;DHT22;11432;46.924;7.114;2023-02-08T07:53:27;-1.00;99.90
22532;DHT22;11432;46.924;7.114;2023-02-08T07:55:52;-1.10;99.90
22532;DHT22;11432;46.924;7.114;2023-02-08T07:58:18;-1.00;99.90
22532;DHT22;11432;46.924;7.114;2023-02-08T08:00:44;-1.00;99.90
22532;DHT22;11432;46.924;7.114;2023-02-08T08:03:09;-1.00;99.90
22532;DHT22;11432;46.924;7.114;2023-02-08T08:05:35;-1.00;1.00
22532;DHT22;11432;46.924;7.114;2023-02-08T08:08:01;-0.90;99.90
22532;DHT22;11432;46.924;7.114;2023-02-08T08:10:26;-0.90;99.90
22532;DHT22;11432;46.924;7.114;2023-02-08T08:12:52;-0.90;99.90
22532;DHT22;11432;46.924;7.114;2023-02-08T08:15:17;-0.90;99.90
22532;DHT22;11432;46.924;7.114;2023-02-08T08:17:43;-1.00;99.90
22532;DHT22;11432;46.924;7.114;2023-02-08T08:20:09;-1.00;63.90
22532;DHT22;11432;46.924;7.114;2023-02-08T08:22:35;-0.90;99.90
22532;DHT22;11432;46.924;7.114;2023-02-08T08:25:01;-0.90;99.90
22532;DHT22;11432;46.924;7.114;2023-02-08T08:27:27;-0.80;7.20
22532;DHT22;11432;46.924;7.114;2023-02-08T08:29:52;-0.90;99.90
22532;DHT22;11432;46.924;7.114;2023-02-08T08:32:18;-0.80;92.20
22532;DHT22;11432;46.924;7.114;2023-02-08T08:34:43;-0.80;1.00
22532;DHT22;11432;46.924;7.114;2023-02-08T08:37:09;-0.70;1.00
22532;DHT22;11432;46.924;7.114;2023-02-08T08:39:35;-0.70;1.00
22532;DHT22;11432;46.924;7.114;2023-02-08T08:42:02;-0.80;1.00
22532;DHT22;11432;46.924;7.114;2023-02-08T08:44:31;-0.80;1.00
22532;DHT22;11432;46.924;7.114;2023-02-08T08:46:57;-0.70;1.00
22532;DHT22;11432;46.924;7.114;2023-02-08T08:49:25;-0.70;77.90
22532;DHT22;11432;46.924;7.114;2023-02-08T08:51:51;-0.70;1.00
22532;DHT22;11432;46.924;7.114;2023-02-08T08:54:17;-0.60;1.00
22532;DHT22;11432;46.924;7.114;2023-02-08T08:56:43;-0.70;1.00
22532;DHT22;11432;46.924;7.114;2023-02-08T08:59:08;-0.70;1.00
22532;DHT22;11432;46.924;7.114;2023-02-08T09:01:34;-0.70;1.00
22532;DHT22;11432;46.924;7.114;2023-02-08T09:04:00;-0.70;1.00
22532;DHT22;11432;46.924;7.114;2023-02-08T09:06:25;-0.50;1.00
22532;DHT22;11432;46.924;7.114;2023-02-08T09:08:51;-0.60;1.00
22532;DHT22;11432;46.924;7.114;2023-02-08T09:11:16;-0.60;1.00
22532;DHT22;11432;46.924;7.114;2023-02-08T09:13:42;-0.50;1.00
22532;DHT22;11432;46.924;7.114;2023-02-08T09:16:12;-0.50;1.00
22532;DHT22;11432;46.924;7.114;2023-02-08T09:18:38;-0.50;1.00
22532;DHT22;11432;46.924;7.114;2023-02-08T09:21:09;-0.40;1.00
22532;DHT22;11432;46.924;7.114;2023-02-08T09:23:36;-0.40;1.00
22532;DHT22;11432;46.924;7.114;2023-02-08T09:26:07;-0.40;1.00
22532;DHT22;11432;46.924;7.114;2023-02-08T09:28:34;-0.30;1.00
22532;DHT22;11432;46.924;7.114;2023-02-08T09:31:09;-0.20;1.00
22532;DHT22;11432;46.924;7.114;2023-02-08T09:33:35;-0.20;1.00
22532;DHT22;11432;46.924;7.114;2023-02-08T09:36:00;-0.20;1.00
22532;DHT22;11432;46.924;7.114;2023-02-08T09:38:26;-0.20;1.00
22532;DHT22;11432;46.924;7.114;2023-02-08T09:46:17;-0.20;1.00
22532;DHT22;11432;46.924;7.114;2023-02-08T09:48:44;-0.20;1.00
22532;DHT22;11432;46.924;7.114;2023-02-08T09:51:24;-0.20;1.00
22532;DHT22;11432;46.924;7.114;2023-02-08T09:53:59;-0.20;1.00
22532;DHT22;11432;46.924;7.114;2023-02-08T09:56:29;-0.30;1.00
22532;DHT22;11432;46.924;7.114;2023-02-08T09:58:58;-0.20;99.90
22532;DHT22;11432;46.924;7.114;2023-02-08T10:01:27;-0.10;1.00
22532;DHT22;11432;46.924;7.114;2023-02-08T10:04:36;0.00;1.00
22532;DHT22;11432;46.924;7.114;2023-02-08T10:06:51;-0.10;1.00
22532;DHT22;11432;46.924;7.114;2023-02-08T10:09:21;-0.10;1.00
22532;DHT22;11432;46.924;7.114;2023-02-08T10:17:53;-0.10;99.90
22532;DHT22;11432;46.924;7.114;2023-02-08T10:28:24;0.20;38.80
22532;DHT22;11432;46.924;7.114;2023-02-08T10:33:36;0.20;1.00
22532;DHT22;11432;46.924;7.114;2023-02-08T10:36:06;0.30;1.00
22532;DHT22;11432;46.924;7.114;2023-02-08T10:38:37;0.30;1.00
22532;DHT22;11432;46.924;7.114;2023-02-08T10:41:05;0.30;99.90
22532;DHT22;11432;46.924;7.114;2023-02-08T10:46:23;0.20;37.50
22532;DHT22;11432;46.924;7.114;2023-02-08T10:51:45;0.20;1.00
22532;DHT22;11432;46.924;7.114;2023-02-08T10:54:12;0.30;1.00
22532;DHT22;11432;46.924;7.114;2023-02-08T10:56:42;0.40;1.00
22532;DHT22;11432;46.924;7.114;2023-02-08T10:59:32;0.50;1.00
22532;DHT22;11432;46.924;7.114;2023-02-08T11:02:00;0.60;1.00
22532;DHT22;11432;46.924;7.114;2023-02-08T11:04:26;0.50;99.90
22532;DHT22;11432;46.924;7.114;2023-02-08T11:06:51;0.40;99.90
22532;DHT22;11432;46.924;7.114;2023-02-08T11:09:24;0.50;99.90
22532;DHT22;11432;46.924;7.114;2023-02-08T11:11:50;0.50;99.90
22532;DHT22;11432;46.924;7.114;2023-02-08T11:14:22;0.60;21.20
22532;DHT22;11432;46.924;7.114;2023-02-08T11:16:53;0.40;1.00
22532;DHT22;11432;46.924;7.114;2023-02-08T11:19:37;0.30;1.00
22532;DHT22;11432;46.924;7.114;2023-02-08T11:22:18;0.40;1.00
22532;DHT22;11432;46.924;7.114;2023-02-08T11:24:45;0.60;99.90
22532;DHT22;11432;46.924;7.114;2023-02-08T11:27:38;0.70;99.90
22532;DHT22;11432;46.924;7.114;2023-02-08T11:32:41;0.80;99.90
22532;DHT22;11432;46.924;7.114;2023-02-08T11:35:26;0.70;1.00
22532;DHT22;11432;46.924;7.114;2023-02-08T11:37:56;0.50;1.00
22532;DHT22;11432;46.924;7.114;2023-02-08T11:40:28;0.60;1.00
22532;DHT22;11432;46.924;7.114;2023-02-08T11:42:56;0.60;1.00
22532;DHT22;11432;46.924;7.114;2023-02-08T11:45:34;0.50;1.00
22532;DHT22;11432;46.924;7.114;2023-02-08T11:48:01;0.50;1.00
22532;DHT22;11432;46.924;7.114;2023-02-08T11:50:32;0.60;1.00
22532;DHT22;11432;46.924;7.114;2023-02-08T11:53:16;0.70;1.00
22532;DHT22;11432;46.924;7.114;2023-02-08T11:56:00;0.80;1.00
22532;DHT22;11432;46.924;7.114;2023-02-08T11:58:26;0.70;1.00
22532;DHT22;11432;46.924;7.114;2023-02-08T12:01:04;0.70;1.00
22532;DHT22;11432;46.924;7.114;2023-02-08T12:03:38;0.80;1.00
22532;DHT22;11432;46.924;7.114;2023-02-08T12:09:00;1.10;1.00
22532;DHT22;11432;46.924;7.114;2023-02-08T12:20:02;1.00;77.90
22532;DHT22;11432;46.924;7.114;2023-02-08T12:22:37;1.10;1.00
22532;DHT22;11432;46.924;7.114;2023-02-08T12:30:59;1.20;99.90
22532;DHT22;11432;46.924;7.114;2023-02-08T12:42:10;1.30;99.90
22532;DHT22;11432;46.924;7.114;2023-02-08T12:45:03;1.40;36.40
22532;DHT22;11432;46.924;7.114;2023-02-08T12:50:09;1.90;1.00
22532;DHT22;11432;46.924;7.114;2023-02-08T12:52:42;1.80;99.90
22532;DHT22;11432;46.924;7.114;2023-02-08T12:55:29;1.90;99.90
22532;DHT22;11432;46.924;7.114;2023-02-08T13:01:01;1.60;99.90
22532;DHT22;11432;46.924;7.114;2023-02-08T13:06:14;1.70;99.90
22532;DHT22;11432;46.924;7.114;2023-02-08T13:11:22;2.20;99.90
22532;DHT22;11432;46.924;7.114;2023-02-08T13:13:57;2.00;99.90
22532;DHT22;11432;46.924;7.114;2023-02-08T13:16:30;1.90;99.90
22532;DHT22;11432;46.924;7.114;2023-02-08T13:19:20;1.50;99.90
22532;DHT22;11432;46.924;7.114;2023-02-08T13:21:47;1.60;99.90
22532;DHT22;11432;46.924;7.114;2023-02-08T13:24:35;1.80;99.90
22532;DHT22;11432;46.924;7.114;2023-02-08T13:27:02;1.80;99.90
22532;DHT22;11432;46.924;7.114;2023-02-08T13:29:31;2.20;99.90
22532;DHT22;11432;46.924;7.114;2023-02-08T13:32:07;2.70;99.90
22532;DHT22;11432;46.924;7.114;2023-02-08T13:34:36;2.90;1.00
22532;DHT22;11432;46.924;7.114;2023-02-08T13:37:06;3.60;1.00
22532;DHT22;11432;46.924;7.114;2023-02-08T13:39:42;4.30;1.00
22532;DHT22;11432;46.924;7.114;2023-02-08T13:42:26;4.20;1.00
22532;DHT22;11432;46.924;7.114;2023-02-08T13:44:55;3.50;1.00
22532;DHT22;11432;46.924;7.114;2023-02-08T13:47:27;3.70;1.00
22532;DHT22;11432;46.924;7.114;2023-02-08T13:50:04;4.60;1.00
22532;DHT22;11432;46.924;7.114;2023-02-08T13:57:54;5.80;1.00
22532;DHT22;11432;46.924;7.114;2023-02-08T14:00:22;5.90;1.00
22532;DHT22;11432;46.924;7.114;2023-02-08T14:03:28;6.30;1.00
22532;DHT22;11432;46.924;7.114;2023-02-08T14:05:57;6.10;1.00
22532;DHT22;11432;46.924;7.114;2023-02-08T14:14:33;3.10;1.00
22532;DHT22;11432;46.924;7.114;2023-02-08T14:20:02;3.80;1.00
22532;DHT22;11432;46.924;7.114;2023-02-08T14:22:35;3.10;1.00
22532;DHT22;11432;46.924;7.114;2023-02-08T14:25:27;2.80;1.00
22532;DHT22;11432;46.924;7.114;2023-02-08T14:28:01;2.50;99.90
22532;DHT22;11432;46.924;7.114;2023-02-08T14:30:30;2.20;64.60
22532;DHT22;11432;46.924;7.114;2023-02-08T14:35:29;1.80;1.00
22532;DHT22;11432;46.924;7.114;2023-02-08T14:41:50;1.70;99.90
22532;DHT22;11432;46.924;7.114;2023-02-08T14:47:06;1.50;89.20
22532;DHT22;11432;46.924;7.114;2023-02-08T14:49:42;1.50;99.90
22532;DHT22;11432;46.924;7.114;2023-02-08T14:52:12;1.50;99.90
22532;DHT22;11432;46.924;7.114;2023-02-08T14:55:01;1.50;1.00
22532;DHT22;11432;46.924;7.114;2023-02-08T14:57:30;1.50;1.00
22532;DHT22;11432;46.924;7.114;2023-02-08T15:00:00;1.50;99.90
22532;DHT22;11432;46.924;7.114;2023-02-08T15:02:26;1.60;1.00
22532;DHT22;11432;46.924;7.114;2023-02-08T15:04:57;1.50;1.00
22532;DHT22;11432;46.924;7.114;2023-02-08T15:10:02;1.40;1.00
22532;DHT22;11432;46.924;7.114;2023-02-08T15:12:31;1.40;1.00
22532;DHT22;11432;46.924;7.114;2023-02-08T15:15:00;1.40;1.00
22532;DHT22;11432;46.924;7.114;2023-02-08T15:17:42;1.50;1.00
22532;DHT22;11432;46.924;7.114;2023-02-08T15:20:42;1.40;1.00
22532;DHT22;11432;46.924;7.114;2023-02-08T15:23:22;1.30;20.80
22532;DHT22;11432;46.924;7.114;2023-02-08T15:28:26;1.30;1.00
22532;DHT22;11432;46.924;7.114;2023-02-08T15:31:14;1.30;1.00
22532;DHT22;11432;46.924;7.114;2023-02-08T15:33:41;1.30;1.00
22532;DHT22;11432;46.924;7.114;2023-02-08T15:36:28;1.20;1.00
22532;DHT22;11432;46.924;7.114;2023-02-08T15:38:56;1.30;99.90
22532;DHT22;11432;46.924;7.114;2023-02-08T15:41:26;1.30;1.00
22532;DHT22;11432;46.924;7.114;2023-02-08T15:44:01;1.30;99.90
22532;DHT22;11432;46.924;7.114;2023-02-08T15:46:27;1.30;99.90
22532;DHT22;11432;46.924;7.114;2023-02-08T15:48:54;1.30;1.00
22532;DHT22;11432;46.924;7.114;2023-02-08T15:51:22;1.20;99.90
22532;DHT22;11432;46.924;7.114;2023-02-08T15:53:51;1.20;99.90
22532;DHT22;11432;46.924;7.114;2023-02-08T15:56:27;1.10;16.20
22532;DHT22;11432;46.924;7.114;2023-02-08T15:58:57;1.10;1.00
22532;DHT22;11432;46.924;7.114;2023-02-08T16:01:24;1.00;1.00
22532;DHT22;11432;46.924;7.114;2023-02-08T16:03:58;0.90;1.00
22532;DHT22;11432;46.924;7.114;2023-02-08T16:06:28;0.90;1.00
22532;DHT22;11432;46.924;7.114;2023-02-08T16:09:00;0.80;1.00
22532;DHT22;11432;46.924;7.114;2023-02-08T16:11:32;0.80;1.00
22532;DHT22;11432;46.924;7.114;2023-02-08T16:14:01;0.70;1.00
22532;DHT22;11432;46.924;7.114;2023-02-08T16:16:43;0.70;1.00
22532;DHT22;11432;46.924;7.114;2023-02-08T16:19:21;0.70;1.00
22532;DHT22;11432;46.924;7.114;2023-02-08T16:21:47;0.60;1.00
22532;DHT22;11432;46.924;7.114;2023-02-08T16:29:32;0.40;1.00
22532;DHT22;11432;46.924;7.114;2023-02-08T16:32:00;0.40;1.00
22532;DHT22;11432;46.924;7.114;2023-02-08T16:34:29;0.30;1.00
22532;DHT22;11432;46.924;7.114;2023-02-08T16:36:55;0.30;1.00
22532;DHT22;11432;46.924;7.114;2023-02-08T16:42:29;0.10;99.90
22532;DHT22;11432;46.924;7.114;2023-02-08T16:47:40;0.00;1.00
22532;DHT22;11432;46.924;7.114;2023-02-08T16:50:09;-0.10;99.90
22532;DHT22;11432;46.924;7.114;2023-02-08T16:52:35;-0.10;1.00
22532;DHT22;11432;46.924;7.114;2023-02-08T16:55:01;-0.10;1.00
22532;DHT22;11432;46.924;7.114;2023-02-08T16:57:48;-0.10;22.20
22532;DHT22;11432;46.924;7.114;2023-02-08T17:00:26;-0.10;99.90
22532;DHT22;11432;46.924;7.114;2023-02-08T17:02:53;-0.20;99.90
22532;DHT22;11432;46.924;7.114;2023-02-08T17:05:20;-0.20;1.00
22532;DHT22;11432;46.924;7.114;2023-02-08T17:07:47;-0.30;1.00
22532;DHT22;11432;46.924;7.114;2023-02-08T17:12:46;-0.30;99.90
22532;DHT22;11432;46.924;7.114;2023-02-08T17:15:11;-0.30;99.90
22532;DHT22;11432;46.924;7.114;2023-02-08T17:17:37;-0.40;99.90
22532;DHT22;11432;46.924;7.114;2023-02-08T17:20:03;-0.40;1.00
22532;DHT22;11432;46.924;7.114;2023-02-08T17:22:29;-0.40;1.00
22532;DHT22;11432;46.924;7.114;2023-02-08T17:24:54;-0.50;1.00
22532;DHT22;11432;46.924;7.114;2023-02-08T17:27:20;-0.50;99.90
22532;DHT22;11432;46.924;7.114;2023-02-08T17:29:46;-0.60;1.00
22532;DHT22;11432;46.924;7.114;2023-02-08T17:32:12;-0.60;1.00
22532;DHT22;11432;46.924;7.114;2023-02-08T17:34:37;-0.60;99.90
22532;DHT22;11432;46.924;7.114;2023-02-08T17:37:04;-0.60;99.90
22532;DHT22;11432;46.924;7.114;2023-02-08T17:39:29;-0.60;1.00
22532;DHT22;11432;46.924;7.114;2023-02-08T17:41:55;-0.60;1.00
22532;DHT22;11432;46.924;7.114;2023-02-08T17:44:21;-0.30;99.90
22532;DHT22;11432;46.924;7.114;2023-02-08T17:46:47;-0.40;1.00
22532;DHT22;11432;46.924;7.114;2023-02-08T17:49:13;-0.60;1.00
22532;DHT22;11432;46.924;7.114;2023-02-08T17:51:40;-0.60;1.00
22532;DHT22;11432;46.924;7.114;2023-02-08T17:54:06;-0.70;26.00
22532;DHT22;11432;46.924;7.114;2023-02-08T17:56:31;-0.80;99.90
22532;DHT22;11432;46.924;7.114;2023-02-08T17:59:00;-0.80;99.90
22532;DHT22;11432;46.924;7.114;2023-02-08T18:01:28;-0.80;1.00
22532;DHT22;11432;46.924;7.114;2023-02-08T18:03:54;-0.90;1.00
22532;DHT22;11432;46.924;7.114;2023-02-08T18:06:21;-0.80;1.00
22532;DHT22;11432;46.924;7.114;2023-02-08T18:08:49;-0.90;1.00
22532;DHT22;11432;46.924;7.114;2023-02-08T18:11:17;-0.90;1.00
22532;DHT22;11432;46.924;7.114;2023-02-08T18:13:45;-1.00;1.00
22532;DHT22;11432;46.924;7.114;2023-02-08T18:16:17;-1.00;1.00
22532;DHT22;11432;46.924;7.114;2023-02-08T18:18:43;-1.00;99.90
22532;DHT22;11432;46.924;7.114;2023-02-08T18:21:14;-1.00;99.90
22532;DHT22;11432;46.924;7.114;2023-02-08T18:23:41;-1.00;99.90
22532;DHT22;11432;46.924;7.114;2023-02-08T18:26:09;-1.00;99.90
22532;DHT22;11432;46.924;7.114;2023-02-08T18:28:35;-1.10;99.90
22532;DHT22;11432;46.924;7.114;2023-02-08T18:31:07;-1.10;99.90
22532;DHT22;11432;46.924;7.114;2023-02-08T18:33:34;-1.20;99.90